sensor_id;sensor_type;location;lat;lon;timestamp;pressure;altitude;pressure_sealevel;temperature;humidity
62248;BME280;48237;50.140;8.486;2023-02-16T00:01:56;100711.07;;;4.17;82.59
62248;BME280;48237;50.140;8.486;2023-02-16T00:04:25;100705.79;;;4.39;83.04
62248;BME280;48237;50.140;8.486;2023-02-16T00:06:53;100701.52;;;3.82;85.95
62248;BME280;48237;50.140;8.486;2023-02-16T00:09:22;100700.02;;;3.81;86.10
62248;BME280;48237;50.140;8.486;2023-02-16T00:11:51;100701.03;;;3.86;86.00
62248;BME280;48237;50.140;8.486;2023-02-16T00:14:20;100700.83;;;3.43;85.85
62248;BME280;48237;50.140;8.486;2023-02-16T00:16:47;100698.80;;;4.09;84.87
62248;BME280;48237;50.140;8.486;2023-02-16T00:19:18;100699.06;;;3.91;85.70
62248;BME280;48237;50.140;8.486;2023-02-16T00:21:46;100709.56;;;3.04;89.23
62248;BME280;48237;50.140;8.486;2023-02-16T00:24:14;100704.32;;;4.07;85.35
62248;BME280;48237;50.140;8.486;2023-02-16T00:26:42;100705.69;;;3.69;85.16
62248;BME280;48237;50.140;8.486;2023-02-16T00:29:14;100703.78;;;4.05;82.77
62248;BME280;48237;50.140;8.486;2023-02-16T00:31:42;100703.72;;;3.62;85.54
62248;BME280;48237;50.140;8.486;2023-02-16T00:34:26;100694.62;;;3.73;84.67
62248;BME280;48237;50.140;8.486;2023-02-16T00:36:55;100687.20;;;3.82;84.06
62248;BME280;48237;50.140;8.486;2023-02-16T00:39:24;100694.03;;;3.82;84.51
62248;BME280;48237;50.140;8.486;2023-02-16T00:41:52;100702.77;;;3.29;85.91
62248;BME280;48237;50.140;8.486;2023-02-16T00:44:28;100693.49;;;4.14;82.66
62248;BME280;48237;50.140;8.486;2023-02-16T00:46:58;100690.97;;;3.11;87.04
62248;BME280;48237;50.140;8.486;2023-02-16T00:49:27;100685.54;;;4.30;84.06
62248;BME280;48237;50.140;8.486;2023-02-16T00:51:54;100687.22;;;3.30;86.94
62248;BME280;48237;50.140;8.486;2023-02-16T00:54:21;100683.29;;;3.90;84.33
62248;BME280;48237;50.140;8.486;2023-02-16T00:56:49;100685.55;;;3.58;86.23
62248;BME280;48237;50.140;8.486;2023-02-16T00:59:19;100684.41;;;4.23;83.55
62248;BME280;48237;50.140;8.486;2023-02-16T01:01:48;100686.57;;;3.87;84.11
62248;BME280;48237;50.140;8.486;2023-02-16T01:04:19;100691.96;;;4.53;83.75
62248;BME280;48237;50.140;8.486;2023-02-16T01:06:47;100691.42;;;3.47;87.02
62248;BME280;48237;50.140;8.486;2023-02-16T01:09:16;100691.09;;;3.78;84.91
62248;BME280;48237;50.140;8.486;2023-02-16T01:11:43;100693.14;;;3.92;84.06
62248;BME280;48237;50.140;8.486;2023-02-16T01:14:12;100694.91;;;3.25;88.63
62248;BME280;48237;50.140;8.486;2023-02-16T01:16:41;100695.19;;;3.54;86.77
62248;BME280;48237;50.140;8.486;2023-02-16T01:19:10;100690.26;;;3.35;88.71
62248;BME280;48237;50.140;8.486;2023-02-16T01:21:38;100690.99;;;2.96;91.00
62248;BME280;48237;50.140;8.486;2023-02-16T01:24:06;100682.98;;;3.71;87.75
62248;BME280;48237;50.140;8.486;2023-02-16T01:26:37;100682.59;;;3.29;89.02
62248;BME280;48237;50.140;8.486;2023-02-16T01:29:06;100679.71;;;3.79;86.64
62248;BME280;48237;50.140;8.486;2023-02-16T01:31:33;100675.07;;;3.76;87.37
62248;BME280;48237;50.140;8.486;2023-02-16T01:34:01;100672.51;;;3.97;86.43
62248;BME280;48237;50.140;8.486;2023-02-16T01:36:32;100675.13;;;3.55;88.35
62248;BME280;48237;50.140;8.486;2023-02-16T01:39:00;100672.18;;;4.19;85.97
62248;BME280;48237;50.140;8.486;2023-02-16T01:41:41;100675.24;;;3.61;88.28
62248;BME280;48237;50.140;8.486;2023-02-16T01:44:13;100669.02;;;3.80;87.27
62248;BME280;48237;50.140;8.486;2023-02-16T01:46:44;100670.58;;;2.84;90.16
62248;BME280;48237;50.140;8.486;2023-02-16T01:49:17;100662.68;;;3.77;88.02
62248;BME280;48237;50.140;8.486;2023-02-16T01:51:51;100669.48;;;3.12;89.24
62248;BME280;48237;50.140;8.486;2023-02-16T01:54:42;100667.56;;;3.72;87.22
62248;BME280;48237;50.140;8.486;2023-02-16T01:57:20;100664.91;;;3.42;88.30
62248;BME280;48237;50.140;8.486;2023-02-16T02:00:27;100666.89;;;3.02;89.70
62248;BME280;48237;50.140;8.486;2023-02-16T02:02:57;100663.18;;;3.17;88.93
62248;BME280;48237;50.140;8.486;2023-02-16T02:05:27;100656.50;;;3.75;85.28
62248;BME280;48237;50.140;8.486;2023-02-16T02:07:58;100656.99;;;4.00;84.06
62248;BME280;48237;50.140;8.486;2023-02-16T02:10:34;100656.87;;;3.87;84.95
62248;BME280;48237;50.140;8.486;2023-02-16T02:13:10;100655.44;;;3.32;87.33
62248;BME280;48237;50.140;8.486;2023-02-16T02:15:41;100653.64;;;3.26;88.42
62248;BME280;48237;50.140;8.486;2023-02-16T02:18:08;100655.39;;;3.26;87.74
62248;BME280;48237;50.140;8.486;2023-02-16T02:20:47;100656.97;;;3.75;86.32
62248;BME280;48237;50.140;8.486;2023-02-16T02:23:27;100650.20;;;3.74;86.03
62248;BME280;48237;50.140;8.486;2023-02-16T02:27:12;100644.20;;;3.37;87.69
62248;BME280;48237;50.140;8.486;2023-02-16T02:29:55;100638.06;;;3.19;88.36
62248;BME280;48237;50.140;8.486;2023-02-16T02:32:36;100628.20;;;3.11;88.29
62248;BME280;48237;50.140;8.486;2023-02-16T02:35:31;100620.61;;;2.57;89.53
62248;BME280;48237;50.140;8.486;2023-02-16T02:38:13;100619.73;;;3.22;86.77
62248;BME280;48237;50.140;8.486;2023-02-16T02:40:52;100624.66;;;3.37;89.36
62248;BME280;48237;50.140;8.486;2023-02-16T02:43:24;100623.18;;;3.67;87.56
62248;BME280;48237;50.140;8.486;2023-02-16T02:45:56;100620.94;;;3.35;87.60
62248;BME280;48237;50.140;8.486;2023-02-16T02:48:29;100620.60;;;3.80;86.73
62248;BME280;48237;50.140;8.486;2023-02-16T02:50:57;100623.57;;;3.20;88.78
62248;BME280;48237;50.140;8.486;2023-02-16T02:53:26;100627.19;;;3.75;85.44
62248;BME280;48237;50.140;8.486;2023-02-16T02:55:53;100631.65;;;2.52;91.18
62248;BME280;48237;50.140;8.486;2023-02-16T02:58:24;100628.02;;;2.37;91.35
62248;BME280;48237;50.140;8.486;2023-02-16T03:00:54;100633.29;;;4.11;85.84
62248;BME280;48237;50.140;8.486;2023-02-16T03:03:24;100627.00;;;3.35;86.77
62248;BME280;48237;50.140;8.486;2023-02-16T03:05:54;100628.52;;;2.67;90.80
62248;BME280;48237;50.140;8.486;2023-02-16T03:08:25;100626.72;;;3.84;86.09
62248;BME280;48237;50.140;8.486;2023-02-16T03:10:56;100624.51;;;2.95;89.98
62248;BME280;48237;50.140;8.486;2023-02-16T03:13:27;100626.88;;;3.90;87.78
62248;BME280;48237;50.140;8.486;2023-02-16T03:15:58;100630.76;;;3.62;86.13
62248;BME280;48237;50.140;8.486;2023-02-16T03:18:30;100631.07;;;3.61;87.42
62248;BME280;48237;50.140;8.486;2023-02-16T03:21:02;100632.22;;;3.38;89.45
62248;BME280;48237;50.140;8.486;2023-02-16T03:23:30;100634.19;;;3.92;85.43
62248;BME280;48237;50.140;8.486;2023-02-16T03:25:59;100632.59;;;3.89;85.11
62248;BME280;48237;50.140;8.486;2023-02-16T03:28:29;100635.24;;;4.03;86.01
62248;BME280;48237;50.140;8.486;2023-02-16T03:30:58;100630.42;;;3.97;84.37
62248;BME280;48237;50.140;8.486;2023-02-16T03:33:27;100629.37;;;3.57;85.33
62248;BME280;48237;50.140;8.486;2023-02-16T03:35:55;100625.92;;;3.50;85.76
62248;BME280;48237;50.140;8.486;2023-02-16T03:38:23;100628.06;;;4.24;83.01
62248;BME280;48237;50.140;8.486;2023-02-16T03:40:51;100628.69;;;3.57;86.11
62248;BME280;48237;50.140;8.486;2023-02-16T03:43:20;100627.57;;;3.56;85.42
62248;BME280;48237;50.140;8.486;2023-02-16T03:45:50;100623.64;;;3.54;86.58
62248;BME280;48237;50.140;8.486;2023-02-16T03:48:17;100621.41;;;3.45;85.67
62248;BME280;48237;50.140;8.486;2023-02-16T03:50:45;100621.89;;;3.58;86.51
62248;BME280;48237;50.140;8.486;2023-02-16T03:53:12;100625.88;;;3.60;84.37
62248;BME280;48237;50.140;8.486;2023-02-16T03:55:42;100632.76;;;4.00;84.40
62248;BME280;48237;50.140;8.486;2023-02-16T03:58:12;100627.38;;;4.13;83.53
62248;BME280;48237;50.140;8.486;2023-02-16T04:00:40;100629.73;;;3.39;86.22
62248;BME280;48237;50.140;8.486;2023-02-16T04:03:07;100628.66;;;3.24;86.66
62248;BME280;48237;50.140;8.486;2023-02-16T04:05:36;100628.46;;;3.48;86.97
62248;BME280;48237;50.140;8.486;2023-02-16T04:08:04;100628.43;;;3.34;86.79
62248;BME280;48237;50.140;8.486;2023-02-16T04:10:33;100634.92;;;3.95;83.45
62248;BME280;48237;50.140;8.486;2023-02-16T04:13:00;100632.16;;;3.35;87.61
62248;BME280;48237;50.140;8.486;2023-02-16T04:15:29;100630.23;;;3.74;86.59
62248;BME280;48237;50.140;8.486;2023-02-16T04:17:56;100628.24;;;3.61;85.45
62248;BME280;48237;50.140;8.486;2023-02-16T04:20:26;100626.28;;;3.96;84.55
62248;BME280;48237;50.140;8.486;2023-02-16T04:22:54;100617.53;;;3.65;85.54
62248;BME280;48237;50.140;8.486;2023-02-16T04:25:22;100619.49;;;3.62;85.93
62248;BME280;48237;50.140;8.486;2023-02-16T04:27:49;100623.37;;;3.95;84.93
62248;BME280;48237;50.140;8.486;2023-02-16T04:30:19;100622.58;;;3.64;84.67
62248;BME280;48237;50.140;8.486;2023-02-16T04:32:47;100625.27;;;4.14;83.47
62248;BME280;48237;50.140;8.486;2023-02-16T04:35:15;100628.01;;;3.73;83.44
62248;BME280;48237;50.140;8.486;2023-02-16T04:37:42;100625.35;;;3.78;84.39
62248;BME280;48237;50.140;8.486;2023-02-16T04:40:11;100626.05;;;3.44;85.09
62248;BME280;48237;50.140;8.486;2023-02-16T04:42:39;100629.17;;;4.11;83.68
62248;BME280;48237;50.140;8.486;2023-02-16T04:45:07;100632.02;;;3.70;84.05
62248;BME280;48237;50.140;8.486;2023-02-16T04:47:35;100628.61;;;4.07;83.17
62248;BME280;48237;50.140;8.486;2023-02-16T04:50:03;100625.44;;;3.40;85.62
62248;BME280;48237;50.140;8.486;2023-02-16T04:52:30;100629.10;;;3.53;87.07
62248;BME280;48237;50.140;8.486;2023-02-16T04:54:57;100627.54;;;3.83;83.61
62248;BME280;48237;50.140;8.486;2023-02-16T04:57:24;100625.15;;;2.92;87.09
62248;BME280;48237;50.140;8.486;2023-02-16T04:59:52;100625.41;;;3.90;84.75
62248;BME280;48237;50.140;8.486;2023-02-16T05:02:19;100626.11;;;3.59;84.20
62248;BME280;48237;50.140;8.486;2023-02-16T05:04:46;100619.94;;;3.38;85.04
62248;BME280;48237;50.140;8.486;2023-02-16T05:07:14;100624.08;;;3.04;86.52
62248;BME280;48237;50.140;8.486;2023-02-16T05:09:41;100621.69;;;3.86;83.47
62248;BME280;48237;50.140;8.486;2023-02-16T05:12:09;100631.19;;;2.26;88.86
62248;BME280;48237;50.140;8.486;2023-02-16T05:14:36;100630.84;;;2.71;91.48
62248;BME280;48237;50.140;8.486;2023-02-16T05:17:04;100627.47;;;3.74;85.44
62248;BME280;48237;50.140;8.486;2023-02-16T05:19:31;100629.51;;;2.58;86.62
62248;BME280;48237;50.140;8.486;2023-02-16T05:21:58;100631.43;;;3.65;85.55
62248;BME280;48237;50.140;8.486;2023-02-16T05:24:26;100637.01;;;3.14;84.65
62248;BME280;48237;50.140;8.486;2023-02-16T05:26:53;100634.78;;;3.68;84.41
62248;BME280;48237;50.140;8.486;2023-02-16T05:29:21;100635.67;;;3.29;85.04
62248;BME280;48237;50.140;8.486;2023-02-16T05:31:48;100633.55;;;3.50;84.69
62248;BME280;48237;50.140;8.486;2023-02-16T05:34:16;100636.04;;;3.69;84.47
62248;BME280;48237;50.140;8.486;2023-02-16T05:36:43;100639.14;;;3.19;84.91
62248;BME280;48237;50.140;8.486;2023-02-16T05:39:10;100648.36;;;2.94;88.05
62248;BME280;48237;50.140;8.486;2023-02-16T05:41:38;100651.72;;;2.64;89.77
62248;BME280;48237;50.140;8.486;2023-02-16T05:44:06;100644.02;;;3.17;87.92
62248;BME280;48237;50.140;8.486;2023-02-16T05:46:36;100642.95;;;3.81;84.40
62248;BME280;48237;50.140;8.486;2023-02-16T05:49:04;100648.93;;;3.30;86.53
62248;BME280;48237;50.140;8.486;2023-02-16T05:51:32;100646.51;;;3.81;83.96
62248;BME280;48237;50.140;8.486;2023-02-16T05:53:58;100642.11;;;3.24;84.25
62248;BME280;48237;50.140;8.486;2023-02-16T05:56:25;100642.59;;;3.19;86.80
62248;BME280;48237;50.140;8.486;2023-02-16T05:58:53;100640.65;;;3.09;85.28
62248;BME280;48237;50.140;8.486;2023-02-16T06:01:21;100646.89;;;3.56;82.98
62248;BME280;48237;50.140;8.486;2023-02-16T06:03:48;100646.36;;;3.73;81.85
62248;BME280;48237;50.140;8.486;2023-02-16T06:06:15;100657.26;;;2.59;88.57
62248;BME280;48237;50.140;8.486;2023-02-16T06:08:42;100656.22;;;3.40;85.27
62248;BME280;48237;50.140;8.486;2023-02-16T06:11:10;100657.84;;;3.50;83.99
62248;BME280;48237;50.140;8.486;2023-02-16T06:13:37;100657.92;;;2.93;84.89
62248;BME280;48237;50.140;8.486;2023-02-16T06:16:04;100657.77;;;3.24;83.43
62248;BME280;48237;50.140;8.486;2023-02-16T06:18:32;100655.94;;;4.05;82.82
62248;BME280;48237;50.140;8.486;2023-02-16T06:20:59;100660.64;;;3.82;83.25
62248;BME280;48237;50.140;8.486;2023-02-16T06:23:27;100669.70;;;4.15;82.31
62248;BME280;48237;50.140;8.486;2023-02-16T06:25:54;100675.22;;;2.95;85.44
62248;BME280;48237;50.140;8.486;2023-02-16T06:28:21;100672.11;;;0.95;91.98
62248;BME280;48237;50.140;8.486;2023-02-16T06:30:48;100672.57;;;2.88;88.71
62248;BME280;48237;50.140;8.486;2023-02-16T06:33:16;100670.62;;;3.18;86.20
62248;BME280;48237;50.140;8.486;2023-02-16T06:35:42;100679.63;;;2.88;88.73
62248;BME280;48237;50.140;8.486;2023-02-16T06:38:10;100680.29;;;2.11;90.11
62248;BME280;48237;50.140;8.486;2023-02-16T06:40:37;100681.41;;;2.56;87.78
62248;BME280;48237;50.140;8.486;2023-02-16T06:43:04;100679.18;;;2.88;85.92
62248;BME280;48237;50.140;8.486;2023-02-16T06:45:32;100676.76;;;3.77;81.96
62248;BME280;48237;50.140;8.486;2023-02-16T06:47:58;100682.00;;;2.49;87.13
62248;BME280;48237;50.140;8.486;2023-02-16T06:50:26;100683.71;;;3.38;85.06
62248;BME280;48237;50.140;8.486;2023-02-16T06:52:54;100677.88;;;3.76;83.41
62248;BME280;48237;50.140;8.486;2023-02-16T06:55:21;100682.32;;;3.15;86.72
62248;BME280;48237;50.140;8.486;2023-02-16T06:57:48;100677.12;;;3.69;83.94
62248;BME280;48237;50.140;8.486;2023-02-16T07:00:16;100675.13;;;3.40;84.64
62248;BME280;48237;50.140;8.486;2023-02-16T07:02:44;100678.00;;;3.22;87.03
62248;BME280;48237;50.140;8.486;2023-02-16T07:05:11;100677.46;;;2.76;86.39
62248;BME280;48237;50.140;8.486;2023-02-16T07:07:38;100676.21;;;4.21;82.51
62248;BME280;48237;50.140;8.486;2023-02-16T07:10:06;100677.65;;;3.35;84.07
62248;BME280;48237;50.140;8.486;2023-02-16T07:12:33;100676.01;;;4.36;82.26
62248;BME280;48237;50.140;8.486;2023-02-16T07:15:01;100673.87;;;3.38;84.78
62248;BME280;48237;50.140;8.486;2023-02-16T07:17:29;100678.60;;;3.66;82.67
62248;BME280;48237;50.140;8.486;2023-02-16T07:19:56;100680.35;;;4.27;81.10
62248;BME280;48237;50.140;8.486;2023-02-16T07:22:23;100679.38;;;3.57;83.34
62248;BME280;48237;50.140;8.486;2023-02-16T07:24:50;100687.56;;;2.55;89.38
62248;BME280;48237;50.140;8.486;2023-02-16T07:27:17;100690.88;;;3.16;85.46
62248;BME280;48237;50.140;8.486;2023-02-16T07:29:45;100690.83;;;3.80;83.20
62248;BME280;48237;50.140;8.486;2023-02-16T07:32:12;100695.74;;;3.82;84.52
62248;BME280;48237;50.140;8.486;2023-02-16T07:34:39;100693.18;;;3.64;84.45
62248;BME280;48237;50.140;8.486;2023-02-16T07:37:07;100700.26;;;3.38;86.66
62248;BME280;48237;50.140;8.486;2023-02-16T07:39:33;100702.92;;;2.94;89.24
62248;BME280;48237;50.140;8.486;2023-02-16T07:42:01;100692.14;;;4.28;82.77
62248;BME280;48237;50.140;8.486;2023-02-16T07:44:27;100695.54;;;3.36;86.33
62248;BME280;48237;50.140;8.486;2023-02-16T07:46:54;100698.97;;;1.63;92.49
62248;BME280;48237;50.140;8.486;2023-02-16T07:49:22;100702.80;;;3.08;89.61
62248;BME280;48237;50.140;8.486;2023-02-16T07:51:49;100699.47;;;3.73;86.58
62248;BME280;48237;50.140;8.486;2023-02-16T07:54:16;100703.86;;;2.44;89.40
62248;BME280;48237;50.140;8.486;2023-02-16T07:56:43;100707.29;;;3.40;88.55
62248;BME280;48237;50.140;8.486;2023-02-16T07:59:11;100698.98;;;3.52;86.09
62248;BME280;48237;50.140;8.486;2023-02-16T08:01:38;100707.46;;;1.17;96.45
62248;BME280;48237;50.140;8.486;2023-02-16T08:04:06;100703.37;;;3.24;87.52
62248;BME280;48237;50.140;8.486;2023-02-16T08:06:33;100704.53;;;3.07;86.79
62248;BME280;48237;50.140;8.486;2023-02-16T08:09:01;100710.78;;;2.88;87.63
62248;BME280;48237;50.140;8.486;2023-02-16T08:11:28;100703.28;;;3.44;85.83
62248;BME280;48237;50.140;8.486;2023-02-16T08:13:54;100701.47;;;3.93;84.20
62248;BME280;48237;50.140;8.486;2023-02-16T08:16:23;100706.15;;;3.68;83.89
62248;BME280;48237;50.140;8.486;2023-02-16T08:18:51;100703.73;;;3.60;84.23
62248;BME280;48237;50.140;8.486;2023-02-16T08:21:21;100703.42;;;3.46;85.31
62248;BME280;48237;50.140;8.486;2023-02-16T08:23:52;100704.51;;;3.52;85.52
62248;BME280;48237;50.140;8.486;2023-02-16T08:26:22;100705.05;;;3.44;85.29
62248;BME280;48237;50.140;8.486;2023-02-16T08:28:50;100708.33;;;2.06;93.46
62248;BME280;48237;50.140;8.486;2023-02-16T08:31:18;100706.40;;;3.37;87.06
62248;BME280;48237;50.140;8.486;2023-02-16T08:33:46;100710.26;;;3.11;88.78
62248;BME280;48237;50.140;8.486;2023-02-16T08:36:18;100707.49;;;3.80;84.11
62248;BME280;48237;50.140;8.486;2023-02-16T08:38:46;100696.62;;;3.93;83.88
62248;BME280;48237;50.140;8.486;2023-02-16T08:41:13;100696.18;;;3.56;84.80
62248;BME280;48237;50.140;8.486;2023-02-16T08:43:41;100701.84;;;3.11;88.03
62248;BME280;48237;50.140;8.486;2023-02-16T08:46:08;100702.20;;;2.27;90.82
62248;BME280;48237;50.140;8.486;2023-02-16T08:48:36;100709.77;;;1.94;91.89
62248;BME280;48237;50.140;8.486;2023-02-16T08:51:03;100707.13;;;3.42;86.28
62248;BME280;48237;50.140;8.486;2023-02-16T08:53:32;100707.42;;;3.43;84.69
62248;BME280;48237;50.140;8.486;2023-02-16T08:56:01;100705.71;;;3.96;84.75
62248;BME280;48237;50.140;8.486;2023-02-16T08:58:30;100698.21;;;4.26;84.33
62248;BME280;48237;50.140;8.486;2023-02-16T09:00:57;100707.83;;;1.71;92.47
62248;BME280;48237;50.140;8.486;2023-02-16T09:03:29;100707.28;;;3.50;85.63
62248;BME280;48237;50.140;8.486;2023-02-16T09:06:00;100710.41;;;3.77;83.51
62248;BME280;48237;50.140;8.486;2023-02-16T09:08:29;100718.45;;;2.54;89.60
62248;BME280;48237;50.140;8.486;2023-02-16T09:11:00;100717.91;;;3.93;84.49
62248;BME280;48237;50.140;8.486;2023-02-16T09:13:27;100722.88;;;3.54;87.27
62248;BME280;48237;50.140;8.486;2023-02-16T09:15:59;100725.79;;;3.10;86.16
62248;BME280;48237;50.140;8.486;2023-02-16T09:18:27;100730.15;;;2.64;92.40
62248;BME280;48237;50.140;8.486;2023-02-16T09:20:54;100722.56;;;3.55;85.65
62248;BME280;48237;50.140;8.486;2023-02-16T09:23:21;100724.43;;;2.69;91.83
62248;BME280;48237;50.140;8.486;2023-02-16T09:25:48;100712.28;;;4.07;84.58
62248;BME280;48237;50.140;8.486;2023-02-16T09:28:15;100716.44;;;2.91;85.48
62248;BME280;48237;50.140;8.486;2023-02-16T09:30:42;100716.62;;;2.80;88.64
62248;BME280;48237;50.140;8.486;2023-02-16T09:33:09;100719.74;;;1.29;97.69
62248;BME280;48237;50.140;8.486;2023-02-16T09:35:37;100720.79;;;2.42;91.82
62248;BME280;48237;50.140;8.486;2023-02-16T09:38:05;100722.56;;;3.49;88.57
62248;BME280;48237;50.140;8.486;2023-02-16T09:40:32;100728.95;;;3.06;88.78
62248;BME280;48237;50.140;8.486;2023-02-16T09:43:06;100733.07;;;2.68;92.62
62248;BME280;48237;50.140;8.486;2023-02-16T09:45:40;100730.90;;;3.51;86.89
62248;BME280;48237;50.140;8.486;2023-02-16T09:48:18;100732.37;;;2.89;86.85
62248;BME280;48237;50.140;8.486;2023-02-16T09:50:49;100730.70;;;2.43;93.58
62248;BME280;48237;50.140;8.486;2023-02-16T09:53:21;100721.84;;;3.81;85.75
62248;BME280;48237;50.140;8.486;2023-02-16T09:55:56;100726.99;;;2.55;90.67
62248;BME280;48237;50.140;8.486;2023-02-16T09:58:28;100729.63;;;0.74;100.00
62248;BME280;48237;50.140;8.486;2023-02-16T10:01:02;100738.93;;;1.89;93.43
62248;BME280;48237;50.140;8.486;2023-02-16T10:03:48;100728.45;;;3.06;91.55
62248;BME280;48237;50.140;8.486;2023-02-16T10:06:41;100722.64;;;1.37;100.00
62248;BME280;48237;50.140;8.486;2023-02-16T10:09:14;100718.58;;;3.99;85.37
62248;BME280;48237;50.140;8.486;2023-02-16T10:11:46;100724.27;;;3.99;85.07
62248;BME280;48237;50.140;8.486;2023-02-16T10:14:24;100718.89;;;4.80;80.80
62248;BME280;48237;50.140;8.486;2023-02-16T10:17:05;100719.80;;;5.04;79.93
62248;BME280;48237;50.140;8.486;2023-02-16T10:19:38;100722.49;;;4.54;81.99
62248;BME280;48237;50.140;8.486;2023-02-16T10:22:08;100718.90;;;5.20;81.79
62248;BME280;48237;50.140;8.486;2023-02-16T10:24:45;100712.15;;;4.18;82.79
62248;BME280;48237;50.140;8.486;2023-02-16T10:27:15;100716.74;;;4.18;85.63
62248;BME280;48237;50.140;8.486;2023-02-16T10:29:42;100717.30;;;4.38;84.09
62248;BME280;48237;50.140;8.486;2023-02-16T10:32:14;100723.47;;;3.04;85.52
62248;BME280;48237;50.140;8.486;2023-02-16T10:34:48;100724.52;;;2.89;93.49
62248;BME280;48237;50.140;8.486;2023-02-16T10:37:28;100718.68;;;3.12;87.77
62248;BME280;48237;50.140;8.486;2023-02-16T10:40:17;100718.26;;;4.23;83.34
62248;BME280;48237;50.140;8.486;2023-02-16T10:42:49;100718.35;;;2.02;96.17
62248;BME280;48237;50.140;8.486;2023-02-16T10:45:22;100716.88;;;1.99;93.07
62248;BME280;48237;50.140;8.486;2023-02-16T10:47:50;100707.88;;;3.73;86.40
62248;BME280;48237;50.140;8.486;2023-02-16T10:50:22;100705.64;;;3.86;85.16
62248;BME280;48237;50.140;8.486;2023-02-16T10:52:55;100704.01;;;3.93;81.81
62248;BME280;48237;50.140;8.486;2023-02-16T10:55:24;100698.70;;;3.78;85.53
62248;BME280;48237;50.140;8.486;2023-02-16T10:57:54;100694.98;;;4.24;80.86
62248;BME280;48237;50.140;8.486;2023-02-16T11:00:32;100698.36;;;4.12;84.00
62248;BME280;48237;50.140;8.486;2023-02-16T11:03:11;100694.01;;;4.41;81.82
62248;BME280;48237;50.140;8.486;2023-02-16T11:05:39;100698.76;;;4.01;82.28
62248;BME280;48237;50.140;8.486;2023-02-16T11:08:08;100693.26;;;3.77;85.50
62248;BME280;48237;50.140;8.486;2023-02-16T11:10:39;100697.00;;;2.60;90.32
62248;BME280;48237;50.140;8.486;2023-02-16T11:13:16;100699.65;;;1.86;96.45
62248;BME280;48237;50.140;8.486;2023-02-16T11:15:50;100691.22;;;4.25;83.69
62248;BME280;48237;50.140;8.486;2023-02-16T11:18:28;100682.03;;;4.22;83.80
62248;BME280;48237;50.140;8.486;2023-02-16T11:20:56;100680.56;;;4.45;80.81
62248;BME280;48237;50.140;8.486;2023-02-16T11:23:25;100669.55;;;3.65;83.54
62248;BME280;48237;50.140;8.486;2023-02-16T11:25:55;100662.68;;;4.47;80.88
62248;BME280;48237;50.140;8.486;2023-02-16T11:28:29;100667.47;;;2.28;93.80
62248;BME280;48237;50.140;8.486;2023-02-16T11:31:02;100668.94;;;3.84;84.79
62248;BME280;48237;50.140;8.486;2023-02-16T11:33:31;100662.14;;;2.79;87.88
62248;BME280;48237;50.140;8.486;2023-02-16T11:35:59;100651.51;;;3.36;86.06
62248;BME280;48237;50.140;8.486;2023-02-16T11:38:28;100652.94;;;4.68;81.61
62248;BME280;48237;50.140;8.486;2023-02-16T11:40:57;100654.90;;;3.84;84.13
62248;BME280;48237;50.140;8.486;2023-02-16T11:43:28;100654.38;;;3.79;84.53
62248;BME280;48237;50.140;8.486;2023-02-16T11:45:58;100659.71;;;4.48;82.13
62248;BME280;48237;50.140;8.486;2023-02-16T11:48:28;100658.49;;;3.70;84.00
62248;BME280;48237;50.140;8.486;2023-02-16T11:50:58;100660.03;;;3.11;86.52
62248;BME280;48237;50.140;8.486;2023-02-16T11:53:28;100654.99;;;3.75;84.54
62248;BME280;48237;50.140;8.486;2023-02-16T11:56:11;100647.55;;;5.18;78.61
62248;BME280;48237;50.140;8.486;2023-02-16T11:58:39;100644.00;;;5.55;78.10
62248;BME280;48237;50.140;8.486;2023-02-16T12:01:17;100643.74;;;5.35;78.61
62248;BME280;48237;50.140;8.486;2023-02-16T12:03:59;100644.83;;;5.72;74.96
62248;BME280;48237;50.140;8.486;2023-02-16T12:06:40;100646.97;;;5.21;79.35
62248;BME280;48237;50.140;8.486;2023-02-16T12:09:21;100636.64;;;6.17;74.94
62248;BME280;48237;50.140;8.486;2023-02-16T12:11:59;100635.25;;;4.93;78.28
62248;BME280;48237;50.140;8.486;2023-02-16T12:14:37;100628.80;;;5.65;76.21
62248;BME280;48237;50.140;8.486;2023-02-16T12:17:17;100624.62;;;4.21;81.49
62248;BME280;48237;50.140;8.486;2023-02-16T12:19:49;100619.91;;;5.08;78.12
62248;BME280;48237;50.140;8.486;2023-02-16T12:22:27;100619.21;;;5.13;78.23
62248;BME280;48237;50.140;8.486;2023-02-16T12:25:08;100618.71;;;5.28;78.51
62248;BME280;48237;50.140;8.486;2023-02-16T12:27:49;100616.82;;;5.65;78.57
62248;BME280;48237;50.140;8.486;2023-02-16T12:30:27;100614.29;;;5.67;77.52
62248;BME280;48237;50.140;8.486;2023-02-16T12:33:08;100619.97;;;5.08;79.67
62248;BME280;48237;50.140;8.486;2023-02-16T12:35:51;100613.63;;;5.28;79.43
62248;BME280;48237;50.140;8.486;2023-02-16T12:38:32;100611.40;;;5.11;79.17
62248;BME280;48237;50.140;8.486;2023-02-16T12:41:11;100611.14;;;5.14;80.01
62248;BME280;48237;50.140;8.486;2023-02-16T12:43:43;100612.96;;;5.20;81.42
62248;BME280;48237;50.140;8.486;2023-02-16T12:46:17;100609.35;;;6.00;77.28
62248;BME280;48237;50.140;8.486;2023-02-16T12:48:50;100608.11;;;5.94;78.29
62248;BME280;48237;50.140;8.486;2023-02-16T12:51:22;100601.61;;;4.96;81.33
62248;BME280;48237;50.140;8.486;2023-02-16T12:53:57;100598.80;;;5.93;77.97
62248;BME280;48237;50.140;8.486;2023-02-16T12:56:32;100594.22;;;6.75;74.52
62248;BME280;48237;50.140;8.486;2023-02-16T12:59:12;100588.22;;;6.37;77.15
62248;BME280;48237;50.140;8.486;2023-02-16T13:01:42;100584.70;;;6.38;74.94
62248;BME280;48237;50.140;8.486;2023-02-16T13:04:18;100582.76;;;6.76;78.24
62248;BME280;48237;50.140;8.486;2023-02-16T13:06:51;100575.16;;;5.68;80.10
62248;BME280;48237;50.140;8.486;2023-02-16T13:09:28;100571.07;;;5.80;80.74
62248;BME280;48237;50.140;8.486;2023-02-16T13:12:06;100570.29;;;6.85;75.48
62248;BME280;48237;50.140;8.486;2023-02-16T13:14:37;100560.05;;;7.31;74.00
62248;BME280;48237;50.140;8.486;2023-02-16T13:17:10;100553.23;;;7.29;74.35
62248;BME280;48237;50.140;8.486;2023-02-16T13:19:37;100553.36;;;5.75;81.80